Time;durP1;ratioP1;P1;durP2;ratioP2;P2;SDS_P1;SDS_P2;PMS_P1;PMS_P2;Temp;Humidity;BMP_temperature;BMP_pressure;BME280_temperature;BME280_humidity;BME280_pressure;Samples;Min_cycle;Max_cycle;Signal;HPM_P1;HPM_P2
2022/12/02 00:01:53;;;;;;;6.95;3.22;;;2.60;99.90;;;;;;5045090;28;20440;-77
2022/12/02 00:04:23;;;;;;;6.63;4.28;;;2.70;99.90;;;;;;5042014;28;20524;-77
2022/12/02 00:06:52;;;;;;;3.35;2.95;;;2.70;99.90;;;;;;5048841;28;20429;-77
2022/12/02 00:09:29;;;;;;;10.10;2.72;;;2.90;99.90;;;;;;5047752;28;20524;-77
2022/12/02 00:11:57;;;;;;;8.15;2.85;;;2.90;99.90;;;;;;5045815;28;20458;-77
2022/12/02 00:14:28;;;;;;;4.15;2.47;;;3.00;99.90;;;;;;5030683;28;20489;-77
2022/12/02 00:16:55;;;;;;;8.95;2.78;;;3.00;99.90;;;;;;5036250;28;20437;-77
2022/12/02 00:19:22;;;;;;;4.83;2.73;;;3.10;99.90;;;;;;5039659;28;20438;-77
2022/12/02 00:21:50;;;;;;;6.40;2.97;;;3.10;99.90;;;;;;5035941;28;20444;-77
2022/12/02 00:24:19;;;;;;;5.95;3.05;;;3.00;99.90;;;;;;5050518;28;20441;-77
2022/12/02 00:26:46;;;;;;;7.17;3.20;;;3.00;99.90;;;;;;5038529;28;20542;-77
2022/12/02 00:29:14;;;;;;;8.13;3.33;;;2.90;99.90;;;;;;5035626;28;20772;-77
2022/12/02 00:31:41;;;;;;;4.50;3.17;;;2.90;99.90;;;;;;5043721;28;20430;-77
2022/12/02 00:34:08;;;;;;;4.47;2.45;;;2.90;99.90;;;;;;5051222;28;20486;-77
2022/12/02 00:36:35;;;;;;;6.10;2.57;;;2.90;99.90;;;;;;5038588;28;20438;-77
2022/12/02 00:39:05;;;;;;;5.38;3.00;;;2.70;99.90;;;;;;5035418;28;20470;-77
2022/12/02 00:41:31;;;;;;;6.53;2.63;;;2.70;99.90;;;;;;5045599;28;20498;-77
2022/12/02 00:46:43;;;;;;;5.93;3.30;;;2.80;99.90;;;;;;5042795;28;20456;-77
2022/12/02 00:49:12;;;;;;;7.00;3.08;;;2.90;99.90;;;;;;5052983;28;20444;-77
2022/12/02 00:51:41;;;;;;;8.20;3.42;;;2.90;99.90;;;;;;5049331;28;20421;-77
2022/12/02 00:54:08;;;;;;;3.42;2.30;;;3.00;99.90;;;;;;5038778;28;20944;-77
2022/12/02 00:56:35;;;;;;;7.90;3.60;;;3.00;99.90;;;;;;5053082;28;20425;-76
2022/12/02 00:59:03;;;;;;;9.00;3.42;;;3.00;99.90;;;;;;5040611;28;20430;-76
2022/12/02 01:01:31;;;;;;;5.75;3.10;;;2.90;99.90;;;;;;5033243;28;20435;-77
2022/12/02 01:03:58;;;;;;;6.35;2.65;;;2.80;99.90;;;;;;5039539;28;20431;-77
2022/12/02 01:06:27;;;;;;;3.60;2.22;;;2.70;99.90;;;;;;5045777;28;20425;-77
2022/12/02 01:08:56;;;;;;;6.18;2.85;;;2.60;99.90;;;;;;5043126;28;20470;-76
2022/12/02 01:11:23;;;;;;;2.42;1.75;;;2.40;99.90;;;;;;5045541;28;20431;-77
2022/12/02 01:13:50;;;;;;;8.30;3.05;;;2.20;99.90;;;;;;5041869;28;20429;-76
2022/12/02 01:16:16;;;;;;;5.13;2.83;;;2.10;99.90;;;;;;5046813;28;20835;-76
2022/12/02 01:18:43;;;;;;;3.83;2.10;;;1.80;99.90;;;;;;5048456;28;20424;-76
2022/12/02 01:21:10;;;;;;;4.57;2.63;;;1.70;99.90;;;;;;5041606;28;20437;-76
2022/12/02 01:23:37;;;;;;;4.60;3.60;;;1.60;99.90;;;;;;5044926;28;20963;-77
2022/12/02 01:26:03;;;;;;;4.00;2.33;;;1.60;99.90;;;;;;5047928;28;20449;-76
2022/12/02 01:28:32;;;;;;;2.10;1.87;;;1.60;99.90;;;;;;5033162;28;20522;-77
2022/12/02 01:30:59;;;;;;;6.85;2.20;;;1.70;99.90;;;;;;5041695;28;20436;-76
2022/12/02 01:33:26;;;;;;;6.47;2.75;;;1.80;99.90;;;;;;5036592;28;20889;-76
2022/12/02 01:35:52;;;;;;;4.57;2.33;;;1.80;99.90;;;;;;5042188;28;20429;-76
2022/12/02 01:38:19;;;;;;;4.82;2.35;;;2.00;99.90;;;;;;5052430;28;20429;-76
2022/12/02 01:40:49;;;;;;;8.82;1.95;;;2.10;99.90;;;;;;5042835;28;20433;-77
2022/12/02 01:43:16;;;;;;;4.28;3.28;;;2.20;99.90;;;;;;5032823;28;20442;-77
2022/12/02 01:45:43;;;;;;;3.42;2.95;;;2.20;99.90;;;;;;5034360;28;20461;-76
2022/12/02 01:48:17;;;;;;;3.85;2.03;;;2.20;99.90;;;;;;5047298;28;20425;-77
2022/12/02 01:50:44;;;;;;;3.40;2.37;;;2.30;99.90;;;;;;5052430;28;20496;-77
2022/12/02 01:53:14;;;;;;;5.93;3.03;;;2.30;99.90;;;;;;5042044;28;20545;-77
2022/12/02 01:55:41;;;;;;;7.20;2.75;;;2.40;99.90;;;;;;5032768;28;20441;-76
2022/12/02 01:58:11;;;;;;;4.53;3.03;;;2.50;99.90;;;;;;5032725;28;20840;-77
2022/12/02 02:00:39;;;;;;;11.98;3.50;;;2.60;99.90;;;;;;5039867;28;20780;-77
2022/12/02 02:03:09;;;;;;;3.42;2.97;;;2.60;99.90;;;;;;5035865;28;20461;-77
2022/12/02 02:05:36;;;;;;;7.15;2.97;;;2.60;99.90;;;;;;5045418;28;20791;-76
2022/12/02 02:08:05;;;;;;;5.70;3.00;;;2.70;99.90;;;;;;5040868;28;20421;-76
2022/12/02 02:10:33;;;;;;;2.35;2.13;;;2.70;99.90;;;;;;5040071;28;20435;-76
2022/12/02 02:13:01;;;;;;;6.70;2.83;;;2.70;99.90;;;;;;5042087;28;20767;-76
2022/12/02 02:15:30;;;;;;;6.82;2.30;;;2.80;99.90;;;;;;5040416;28;20449;-77
2022/12/02 02:17:57;;;;;;;7.15;2.58;;;2.80;99.90;;;;;;5041606;28;20483;-76
2022/12/02 02:20:31;;;;;;;6.45;3.45;;;2.80;99.90;;;;;;5050949;28;20425;-76
2022/12/02 02:23:06;;;;;;;7.60;3.03;;;2.90;99.90;;;;;;5046589;28;20519;-76
2022/12/02 02:25:39;;;;;;;7.47;3.08;;;3.00;99.90;;;;;;5038399;28;20861;-76
2022/12/02 02:28:08;;;;;;;7.03;3.57;;;3.10;99.90;;;;;;5046440;28;20441;-76
2022/12/02 02:30:35;;;;;;;9.90;3.50;;;3.10;99.90;;;;;;5035286;28;20857;-76
2022/12/02 02:33:05;;;;;;;5.20;3.15;;;3.10;99.90;;;;;;5035799;28;20431;-76
2022/12/02 02:35:38;;;;;;;7.10;3.13;;;3.10;99.90;;;;;;5035217;28;20440;-76
2022/12/02 02:38:07;;;;;;;12.02;3.50;;;3.10;99.90;;;;;;5034652;28;20501;-76
2022/12/02 02:40:35;;;;;;;4.70;3.55;;;3.10;99.90;;;;;;5044563;28;20441;-76
2022/12/02 02:43:03;;;;;;;6.40;3.65;;;3.10;99.90;;;;;;5043079;28;20440;-76
2022/12/02 02:45:32;;;;;;;6.00;3.17;;;3.20;99.90;;;;;;5050276;28;20509;-77
2022/12/02 02:48:01;;;;;;;10.97;4.43;;;3.20;99.90;;;;;;5051172;28;20429;-76
2022/12/02 02:50:28;;;;;;;5.60;2.47;;;3.10;99.90;;;;;;5038611;28;20427;-76
2022/12/02 02:52:56;;;;;;;8.05;3.67;;;3.10;99.90;;;;;;5037088;28;20431;-76
2022/12/02 02:55:25;;;;;;;5.63;3.20;;;3.20;99.90;;;;;;5033759;28;20660;-76
2022/12/02 02:57:52;;;;;;;5.45;3.35;;;3.20;99.90;;;;;;5049645;28;20429;-76
2022/12/02 03:00:21;;;;;;;5.65;2.95;;;3.20;99.90;;;;;;5032396;28;20430;-77
2022/12/02 03:02:51;;;;;;;6.82;3.20;;;3.20;99.90;;;;;;5039779;28;20433;-76
2022/12/02 03:05:20;;;;;;;4.28;3.13;;;3.20;99.90;;;;;;5049328;28;20441;-76
2022/12/02 03:07:47;;;;;;;9.50;3.90;;;3.20;99.90;;;;;;5051491;28;20439;-76
2022/12/02 03:10:16;;;;;;;5.55;3.20;;;3.20;99.90;;;;;;5069490;28;20424;-76
2022/12/02 03:12:45;;;;;;;6.90;2.90;;;3.20;99.90;;;;;;5071186;28;20434;-76
2022/12/02 03:15:13;;;;;;;5.07;3.50;;;3.20;99.90;;;;;;5069873;28;20427;-76
2022/12/02 03:17:40;;;;;;;7.22;4.22;;;3.20;99.90;;;;;;5071450;28;20450;-76
2022/12/02 03:20:18;;;;;;;4.90;2.28;;;3.20;99.90;;;;;;5047332;28;20437;-76
2022/12/02 03:22:48;;;;;;;3.95;3.30;;;3.20;99.90;;;;;;5049550;28;20424;-76
2022/12/02 03:25:18;;;;;;;5.78;2.60;;;3.20;99.90;;;;;;5051153;28;20440;-76
2022/12/02 03:27:45;;;;;;;2.38;2.10;;;3.20;99.90;;;;;;5043218;28;20952;-75
2022/12/02 03:30:12;;;;;;;6.60;3.10;;;3.20;99.90;;;;;;5034009;28;20439;-76
2022/12/02 03:32:44;;;;;;;5.30;2.67;;;3.20;99.90;;;;;;5050974;28;20425;-76
2022/12/02 03:35:11;;;;;;;2.85;2.58;;;3.30;99.90;;;;;;5059049;28;20537;-76
2022/12/02 03:37:38;;;;;;;9.40;3.88;;;3.30;99.90;;;;;;5030697;28;20493;-76
2022/12/02 03:40:06;;;;;;;10.77;2.67;;;3.30;99.90;;;;;;5045861;28;20519;-76
2022/12/02 03:42:33;;;;;;;2.92;2.63;;;3.30;99.90;;;;;;5048151;28;20435;-76
2022/12/02 03:45:00;;;;;;;2.95;2.08;;;3.30;99.90;;;;;;5049466;28;20437;-76
2022/12/02 03:47:28;;;;;;;7.32;3.35;;;3.20;99.90;;;;;;5042926;28;21047;-76
2022/12/02 03:49:56;;;;;;;4.40;2.67;;;3.20;99.90;;;;;;5044988;28;20443;-76
2022/12/02 03:52:23;;;;;;;8.68;3.35;;;3.20;99.90;;;;;;5047679;28;20444;-76
2022/12/02 03:54:50;;;;;;;8.38;2.40;;;3.30;99.90;;;;;;5041286;28;20440;-76
2022/12/02 03:57:26;;;;;;;5.50;3.10;;;3.30;99.90;;;;;;5050684;28;20436;-77
2022/12/02 03:59:54;;;;;;;5.50;3.37;;;3.30;99.90;;;;;;5042072;28;20826;-76
2022/12/02 04:02:26;;;;;;;5.55;3.78;;;3.20;99.90;;;;;;5030431;28;20770;-77
2022/12/02 04:04:52;;;;;;;5.72;3.60;;;3.30;99.90;;;;;;5050288;28;20416;-76
2022/12/02 04:07:19;;;;;;;5.85;3.65;;;3.20;99.90;;;;;;5056072;28;20511;-76
2022/12/02 04:09:46;;;;;;;7.47;3.63;;;3.20;99.90;;;;;;5047044;28;20505;-76
2022/12/02 04:12:15;;;;;;;6.60;3.63;;;3.20;99.90;;;;;;5053159;28;20487;-76
2022/12/02 04:14:42;;;;;;;8.68;2.83;;;3.30;99.90;;;;;;5042518;28;20513;-76
2022/12/02 04:17:09;;;;;;;4.25;2.60;;;3.30;99.90;;;;;;5065356;28;20455;-76
2022/12/02 04:19:36;;;;;;;7.55;3.35;;;3.30;99.90;;;;;;5057758;28;20486;-76
2022/12/02 04:22:02;;;;;;;5.72;2.55;;;3.30;99.90;;;;;;5053674;28;20432;-76
2022/12/02 04:24:32;;;;;;;4.53;3.50;;;3.30;99.90;;;;;;5051108;28;20433;-76
2022/12/02 04:26:58;;;;;;;3.45;3.15;;;3.30;99.90;;;;;;5045069;28;20445;-76
2022/12/02 04:29:25;;;;;;;3.83;2.80;;;3.30;99.90;;;;;;5052523;28;20437;-76
2022/12/02 04:31:52;;;;;;;3.90;2.58;;;3.20;99.90;;;;;;5051673;28;20431;-76
2022/12/02 04:34:19;;;;;;;5.97;4.40;;;3.20;99.90;;;;;;5054456;28;20434;-76
2022/12/02 04:36:46;;;;;;;7.57;2.75;;;3.20;99.90;;;;;;5057637;28;20433;-76
2022/12/02 04:39:13;;;;;;;9.52;3.78;;;3.20;99.90;;;;;;5051007;28;20465;-76
2022/12/02 04:41:39;;;;;;;6.35;2.75;;;3.20;99.90;;;;;;5053801;28;20433;-76
2022/12/02 04:44:06;;;;;;;5.50;3.78;;;3.20;99.90;;;;;;5053564;28;20967;-75
2022/12/02 04:46:33;;;;;;;4.10;2.53;;;3.20;99.90;;;;;;5037751;28;20435;-75
2022/12/02 04:49:00;;;;;;;15.90;4.25;;;3.20;99.90;;;;;;5044685;28;20429;-75
2022/12/02 04:51:26;;;;;;;5.47;3.40;;;3.20;99.90;;;;;;5065175;28;20429;-75
2022/12/02 04:53:53;;;;;;;4.93;2.33;;;3.20;99.90;;;;;;5035985;28;20520;-75
2022/12/02 04:56:20;;;;;;;7.25;2.25;;;3.20;99.90;;;;;;5042517;28;20930;-75
2022/12/02 04:58:52;;;;;;;4.22;2.67;;;3.20;99.90;;;;;;5044401;28;20437;-75
2022/12/02 05:01:19;;;;;;;3.50;2.83;;;3.20;99.90;;;;;;5041876;28;20965;-75
2022/12/02 05:03:46;;;;;;;1.98;1.88;;;3.20;99.90;;;;;;5049471;28;20961;-75
2022/12/02 05:06:13;;;;;;;9.83;2.63;;;3.20;99.90;;;;;;5059186;28;20432;-75
2022/12/02 05:08:39;;;;;;;2.40;2.17;;;3.20;99.90;;;;;;5052159;28;20440;-75
2022/12/02 05:11:06;;;;;;;3.90;3.00;;;3.20;99.90;;;;;;5048221;28;20434;-75
2022/12/02 05:13:33;;;;;;;5.78;3.35;;;3.30;99.90;;;;;;5031919;28;21391;-75
2022/12/02 05:16:00;;;;;;;6.13;3.28;;;3.20;99.90;;;;;;5029431;28;20452;-76
2022/12/02 05:18:27;;;;;;;6.88;3.28;;;3.30;99.90;;;;;;5037315;28;20454;-76
2022/12/02 05:20:57;;;;;;;4.13;2.65;;;3.30;99.90;;;;;;5047809;28;20933;-77
2022/12/02 05:23:24;;;;;;;6.07;3.22;;;3.30;99.90;;;;;;5043473;28;20436;-76
2022/12/02 05:25:51;;;;;;;12.52;3.42;;;3.30;99.90;;;;;;5037317;28;20453;-76
2022/12/02 05:28:17;;;;;;;4.33;2.87;;;3.20;99.90;;;;;;5040821;28;20465;-76
2022/12/02 05:30:47;;;;;;;8.13;2.92;;;3.20;99.90;;;;;;5043436;28;20435;-76
2022/12/02 05:33:14;;;;;;;4.00;2.92;;;3.20;99.90;;;;;;5047553;28;21131;-76
2022/12/02 05:35:50;;;;;;;5.13;2.58;;;3.20;99.90;;;;;;5050312;28;20429;-76
2022/12/02 05:38:17;;;;;;;4.90;2.53;;;3.20;99.90;;;;;;5041778;28;20860;-76
2022/12/02 05:40:44;;;;;;;3.38;2.47;;;3.20;99.90;;;;;;5043002;28;20429;-76
2022/12/02 05:43:16;;;;;;;3.58;2.85;;;3.20;99.90;;;;;;5038726;28;20443;-76
2022/12/02 05:45:43;;;;;;;6.85;3.03;;;3.20;99.90;;;;;;5036035;28;20438;-76
2022/12/02 05:48:12;;;;;;;7.20;2.65;;;3.20;99.90;;;;;;5042287;28;20432;-76
2022/12/02 05:50:40;;;;;;;3.70;3.20;;;3.20;99.90;;;;;;5045688;28;20430;-76
2022/12/02 05:53:25;;;;;;;3.75;2.40;;;3.20;99.90;;;;;;5041917;28;20442;-76
2022/12/02 05:55:53;;;;;;;5.72;2.40;;;3.20;99.90;;;;;;5051590;28;20464;-76
2022/12/02 05:58:21;;;;;;;7.60;3.67;;;3.20;99.90;;;;;;5047002;28;20557;-76
2022/12/02 06:00:54;;;;;;;7.82;3.30;;;3.20;99.90;;;;;;5044451;28;20505;-77
2022/12/02 06:03:21;;;;;;;7.90;3.17;;;3.20;99.90;;;;;;5042408;28;20521;-76
2022/12/02 06:05:52;;;;;;;7.60;3.60;;;3.20;99.90;;;;;;5045850;28;20958;-76
2022/12/02 06:08:26;;;;;;;5.68;2.67;;;3.20;99.90;;;;;;5048687;28;20440;-76
2022/12/02 06:11:02;;;;;;;3.88;2.67;;;3.20;99.90;;;;;;5043914;28;20437;-73
2022/12/02 06:13:36;;;;;;;5.60;3.25;;;3.20;99.90;;;;;;5040437;28;20639;-73
2022/12/02 06:16:06;;;;;;;8.30;2.93;;;3.20;99.90;;;;;;5040048;28;20518;-73
2022/12/02 06:18:35;;;;;;;6.25;2.47;;;3.10;99.90;;;;;;5042774;28;20453;-72
2022/12/02 06:21:09;;;;;;;4.83;2.90;;;3.10;99.90;;;;;;5038413;28;20516;-73
2022/12/02 06:23:44;;;;;;;3.83;2.80;;;3.10;99.90;;;;;;5031860;28;20634;-72
2022/12/02 06:26:15;;;;;;;4.63;2.47;;;3.10;99.90;;;;;;5041857;28;20444;-73
2022/12/02 06:28:44;;;;;;;5.45;2.85;;;3.20;99.90;;;;;;5039034;28;20454;-72
2022/12/02 06:31:29;;;;;;;5.25;2.40;;;3.20;99.90;;;;;;5035630;28;20462;-72
2022/12/02 06:33:59;;;;;;;3.00;2.05;;;3.20;99.90;;;;;;5034125;28;20514;-73
2022/12/02 06:36:30;;;;;;;7.68;3.42;;;3.10;99.90;;;;;;5044239;28;20429;-73
2022/12/02 06:39:12;;;;;;;5.18;2.70;;;3.10;99.90;;;;;;5029947;28;20922;-74
2022/12/02 06:41:39;;;;;;;2.67;2.45;;;3.10;99.90;;;;;;5047844;28;20433;-74
2022/12/02 06:47:31;;;;;;;3.80;2.72;;;3.00;99.90;;;;;;5032457;28;20429;-73
2022/12/02 06:50:32;;;;;;;8.70;3.67;;;3.00;99.90;;;;;;5046879;28;21066;-73
2022/12/02 06:53:10;;;;;;;8.38;3.08;;;3.00;99.90;;;;;;5032996;28;20437;-72
2022/12/02 06:55:37;;;;;;;7.68;3.75;;;3.00;99.90;;;;;;5045148;28;20462;-73
2022/12/02 06:58:27;;;;;;;6.60;3.07;;;3.00;99.90;;;;;;5040406;28;20427;-73
2022/12/02 07:01:06;;;;;;;8.02;3.08;;;3.00;99.90;;;;;;5036362;28;21407;-73
2022/12/02 07:03:37;;;;;;;5.80;3.47;;;2.90;99.90;;;;;;5046775;28;20512;-72
2022/12/02 07:06:23;;;;;;;2.10;1.83;;;2.90;99.90;;;;;;5035365;28;20436;-73
2022/12/02 07:08:50;;;;;;;3.83;2.63;;;2.90;99.90;;;;;;5038758;28;20439;-73
2022/12/02 07:11:19;;;;;;;2.38;1.98;;;2.80;99.90;;;;;;5042740;28;20860;-73
2022/12/02 07:13:47;;;;;;;4.77;3.00;;;2.80;99.90;;;;;;5032530;28;20528;-73
2022/12/02 07:16:33;;;;;;;8.02;3.70;;;2.80;99.90;;;;;;5038162;28;21045;-73
2022/12/02 07:19:01;;;;;;;6.18;3.03;;;2.80;99.90;;;;;;5039926;28;20904;-73
2022/12/02 07:21:28;;;;;;;7.28;2.90;;;2.80;99.90;;;;;;5047182;28;20425;-73
2022/12/02 07:23:55;;;;;;;3.80;2.28;;;2.80;99.90;;;;;;5043198;28;20920;-73
2022/12/02 07:26:23;;;;;;;6.65;3.30;;;2.80;99.90;;;;;;5043894;28;20429;-73
2022/12/02 07:28:57;;;;;;;5.95;2.97;;;2.80;99.90;;;;;;5039369;28;20433;-73
2022/12/02 07:31:43;;;;;;;2.55;1.77;;;2.80;99.90;;;;;;5038505;28;20793;-73
2022/12/02 07:34:12;;;;;;;5.63;2.60;;;2.80;99.90;;;;;;5038230;28;20460;-72
2022/12/02 07:36:39;;;;;;;4.05;2.28;;;2.80;99.90;;;;;;5045667;28;20432;-73
2022/12/02 07:39:06;;;;;;;5.93;2.75;;;2.70;99.90;;;;;;5032662;28;20777;-73
2022/12/02 07:41:34;;;;;;;5.97;3.17;;;2.80;99.90;;;;;;5041148;28;20985;-73
2022/12/02 07:44:05;;;;;;;3.50;2.45;;;2.80;99.90;;;;;;5037540;28;20434;-73
2022/12/02 07:46:33;;;;;;;4.88;2.90;;;2.80;99.90;;;;;;5044537;28;20444;-72
2022/12/02 07:49:00;;;;;;;9.27;3.08;;;2.80;99.90;;;;;;5038933;28;20493;-72
2022/12/02 07:51:27;;;;;;;6.57;1.77;;;2.80;99.90;;;;;;5044214;28;20431;-72
2022/12/02 07:53:56;;;;;;;4.93;2.83;;;2.80;99.90;;;;;;5043185;28;20429;-72
2022/12/02 07:56:23;;;;;;;8.65;3.28;;;2.80;99.90;;;;;;5040275;28;20967;-73
2022/12/02 07:58:50;;;;;;;3.80;2.45;;;2.80;99.90;;;;;;5044049;28;20869;-73
2022/12/02 08:01:40;;;;;;;3.95;2.35;;;2.80;99.90;;;;;;5035215;28;20817;-73
2022/12/02 08:04:07;;;;;;;4.00;3.13;;;2.80;99.90;;;;;;5038204;28;20511;-73
2022/12/02 08:06:34;;;;;;;2.40;2.03;;;2.80;99.90;;;;;;5041733;28;20440;-73
2022/12/02 08:09:09;;;;;;;2.50;1.70;;;2.90;99.90;;;;;;5041731;28;20438;-73
2022/12/02 08:11:36;;;;;;;3.63;1.90;;;2.90;99.90;;;;;;5041760;28;20442;-74
2022/12/02 08:14:03;;;;;;;2.53;1.67;;;2.90;99.90;;;;;;5045548;28;20486;-73
2022/12/02 08:16:30;;;;;;;2.63;2.47;;;2.90;99.90;;;;;;5047746;28;20908;-74
2022/12/02 08:18:57;;;;;;;5.73;2.00;;;2.90;99.90;;;;;;5038776;28;20441;-73
2022/12/02 08:21:23;;;;;;;2.77;1.57;;;2.90;99.90;;;;;;5041819;28;20516;-74
2022/12/02 08:23:50;;;;;;;5.85;2.78;;;2.90;99.90;;;;;;5044715;28;20464;-73
2022/12/02 08:26:17;;;;;;;6.40;2.47;;;2.90;99.90;;;;;;5028488;28;20447;-73
2022/12/02 08:28:44;;;;;;;5.03;2.28;;;2.90;99.90;;;;;;5037300;28;20949;-73
2022/12/02 08:31:16;;;;;;;2.05;1.83;;;2.90;99.90;;;;;;5045784;28;20429;-73
2022/12/02 08:33:43;;;;;;;3.30;2.15;;;3.00;99.90;;;;;;5030052;28;20486;-73
2022/12/02 08:36:10;;;;;;;3.70;2.70;;;3.00;99.90;;;;;;5039917;28;20425;-73
2022/12/02 08:38:37;;;;;;;4.53;2.00;;;3.00;99.90;;;;;;5036760;28;20456;-73
2022/12/02 08:41:03;;;;;;;3.90;1.98;;;3.00;99.90;;;;;;5039576;28;20421;-73
2022/12/02 08:43:37;;;;;;;3.67;2.27;;;3.00;99.90;;;;;;5037317;28;20433;-73
2022/12/02 08:46:05;;;;;;;6.57;2.77;;;3.00;99.90;;;;;;5042778;28;20510;-73
2022/12/02 08:48:32;;;;;;;2.45;1.50;;;3.00;99.90;;;;;;5042742;28;20430;-74
2022/12/02 08:50:59;;;;;;;4.18;2.22;;;3.10;99.90;;;;;;5034879;28;20455;-73
2022/12/02 08:53:26;;;;;;;2.63;1.90;;;3.10;99.90;;;;;;5044144;28;20795;-73
2022/12/02 08:55:53;;;;;;;3.88;2.10;;;3.00;99.90;;;;;;5042427;28;20904;-73
2022/12/02 08:58:19;;;;;;;3.47;2.50;;;3.00;99.90;;;;;;5044732;28;20431;-74
2022/12/02 09:00:46;;;;;;;3.85;2.35;;;3.00;99.90;;;;;;5050689;28;20428;-74
2022/12/02 09:03:13;;;;;;;3.33;2.15;;;3.00;99.90;;;;;;5051429;28;20930;-74
2022/12/02 09:05:40;;;;;;;3.90;2.50;;;3.00;99.90;;;;;;5052041;28;20544;-74
2022/12/02 09:08:07;;;;;;;6.32;2.67;;;2.90;99.90;;;;;;5038727;28;20439;-73
2022/12/02 09:10:34;;;;;;;3.20;1.95;;;2.90;99.90;;;;;;5032094;28;20437;-74
2022/12/02 09:13:02;;;;;;;4.30;2.43;;;2.80;99.90;;;;;;5045015;28;20444;-74
2022/12/02 09:15:28;;;;;;;4.30;2.00;;;2.80;99.90;;;;;;5036992;28;20440;-74
2022/12/02 09:17:55;;;;;;;2.75;1.55;;;2.70;99.90;;;;;;5050827;28;20504;-74
2022/12/02 09:20:24;;;;;;;2.23;1.93;;;2.70;99.90;;;;;;5037359;28;20901;-74
2022/12/02 09:22:50;;;;;;;3.70;1.65;;;2.60;99.90;;;;;;5032150;28;20897;-73
2022/12/02 09:25:17;;;;;;;1.95;1.70;;;2.60;99.90;;;;;;5039212;28;20491;-74
2022/12/02 09:27:44;;;;;;;1.58;1.48;;;2.60;99.90;;;;;;5042161;28;20521;-74
2022/12/02 09:30:11;;;;;;;3.05;1.75;;;2.60;99.90;;;;;;5048195;28;20436;-74
2022/12/02 09:32:37;;;;;;;2.10;1.25;;;2.60;99.90;;;;;;5051366;28;20437;-74
2022/12/02 09:35:05;;;;;;;5.53;1.80;;;2.60;99.90;;;;;;5040782;28;20805;-74
2022/12/02 09:37:32;;;;;;;1.80;1.30;;;2.60;99.90;;;;;;5038917;28;20427;-73
2022/12/02 09:39:59;;;;;;;4.95;2.15;;;2.60;99.90;;;;;;5068371;28;20477;-74
2022/12/02 09:42:26;;;;;;;1.63;1.27;;;2.60;99.90;;;;;;5051282;28;20432;-73
2022/12/02 09:44:54;;;;;;;3.30;2.92;;;2.70;99.90;;;;;;5048375;28;20517;-74
2022/12/02 09:47:22;;;;;;;3.10;2.03;;;2.70;99.90;;;;;;5050560;28;20438;-74
2022/12/02 09:49:49;;;;;;;2.67;2.47;;;2.70;99.90;;;;;;5041597;28;20477;-74
2022/12/02 09:52:20;;;;;;;2.00;1.90;;;2.70;99.90;;;;;;5040835;28;20460;-74
2022/12/02 09:54:57;;;;;;;4.10;1.90;;;2.60;99.90;;;;;;5030296;28;20431;-74
2022/12/02 09:57:28;;;;;;;1.75;1.38;;;2.60;99.90;;;;;;5041019;28;20504;-74
2022/12/02 10:00:03;;;;;;;2.58;2.03;;;2.60;99.90;;;;;;5038144;28;20447;-73
2022/12/02 10:02:38;;;;;;;5.15;2.47;;;2.60;99.90;;;;;;5033449;28;20510;-74
2022/12/02 10:05:22;;;;;;;2.95;1.73;;;2.50;99.90;;;;;;5047408;28;20455;-79
2022/12/02 10:07:50;;;;;;;3.27;1.67;;;2.50;99.90;;;;;;5041733;28;20465;-74
2022/12/02 10:10:20;;;;;;;2.67;1.38;;;2.60;99.90;;;;;;5034879;28;20444;-73
2022/12/02 10:12:47;;;;;;;2.80;2.57;;;2.60;99.90;;;;;;5045723;28;20795;-73
2022/12/02 10:15:18;;;;;;;2.00;1.40;;;2.70;99.90;;;;;;5038932;28;20438;-74
2022/12/02 10:17:45;;;;;;;1.80;1.70;;;2.70;99.90;;;;;;5042120;28;20436;-74
2022/12/02 10:20:26;;;;;;;1.40;1.40;;;2.80;99.90;;;;;;5046386;28;20467;-74
2022/12/02 10:23:14;;;;;;;6.90;4.18;;;2.90;99.90;;;;;;5038826;28;20445;-74
2022/12/02 10:25:44;;;;;;;3.05;1.67;;;2.90;99.90;;;;;;5043587;28;20437;-74
2022/12/02 10:28:32;;;;;;;2.30;2.10;;;2.70;99.90;;;;;;5044716;28;20892;-74
2022/12/02 10:31:06;;;;;;;4.18;2.35;;;2.70;99.90;;;;;;5041939;28;22941;-74
2022/12/02 10:33:37;;;;;;;2.83;1.77;;;2.80;99.90;;;;;;5043695;28;20444;-73
2022/12/02 10:36:04;;;;;;;6.35;2.58;;;2.80;99.90;;;;;;5051781;28;20421;-74
2022/12/02 10:38:43;;;;;;;1.73;1.63;;;2.70;99.90;;;;;;5045690;28;20436;-74
2022/12/02 10:41:19;;;;;;;3.35;1.85;;;2.70;99.90;;;;;;5048340;28;20904;-73
2022/12/02 10:43:52;;;;;;;3.90;1.80;;;2.70;99.90;;;;;;5042661;28;20434;-73
2022/12/02 10:46:20;;;;;;;3.17;1.60;;;2.70;99.90;;;;;;5039377;28;20795;-73
2022/12/02 10:48:48;;;;;;;4.82;1.52;;;2.70;99.90;;;;;;5051049;28;20444;-73
2022/12/02 10:51:17;;;;;;;3.63;2.85;;;2.70;99.90;;;;;;5036609;28;20437;-74
2022/12/02 10:53:48;;;;;;;2.45;2.30;;;2.80;99.90;;;;;;5042736;28;20746;-73
2022/12/02 10:56:22;;;;;;;2.05;1.63;;;2.90;99.90;;;;;;5031045;28;20425;-73
2022/12/02 11:01:54;;;;;;;2.30;1.67;;;3.00;99.90;;;;;;5037806;28;20437;-73
2022/12/02 11:04:21;;;;;;;2.60;1.67;;;3.00;99.90;;;;;;5044672;28;20939;-73
2022/12/02 11:06:48;;;;;;;3.55;2.08;;;2.90;99.90;;;;;;5037564;28;20425;-73
2022/12/02 11:09:19;;;;;;;3.90;2.63;;;3.10;99.90;;;;;;5041040;28;20505;-73
2022/12/02 11:12:28;;;;;;;4.30;2.00;;;3.20;99.90;;;;;;5043916;28;20433;-73
2022/12/02 11:14:55;;;;;;;4.50;2.10;;;3.30;99.90;;;;;;5046762;28;20520;-73
2022/12/02 11:17:47;;;;;;;1.90;1.80;;;3.30;99.90;;;;;;5041838;28;20421;-73
2022/12/02 11:20:29;;;;;;;3.83;2.30;;;3.40;99.90;;;;;;5041577;28;20520;-73
2022/12/02 11:22:59;;;;;;;2.70;1.67;;;3.50;99.90;;;;;;5032101;28;20425;-73
2022/12/02 11:25:41;;;;;;;2.78;1.55;;;3.40;99.90;;;;;;5038056;28;20495;-73
2022/12/02 11:28:17;;;;;;;3.42;1.77;;;3.40;99.90;;;;;;5044070;28;20439;-74
2022/12/02 11:30:45;;;;;;;2.35;1.77;;;3.40;99.90;;;;;;5054333;28;20845;-73
2022/12/02 11:33:33;;;;;;;5.28;2.25;;;3.30;99.90;;;;;;5052232;28;20923;-74
2022/12/02 11:36:13;;;;;;;2.40;1.88;;;3.30;99.90;;;;;;5043845;28;20430;-74
2022/12/02 11:38:50;;;;;;;2.40;2.20;;;3.20;99.90;;;;;;5042869;28;20433;-73
2022/12/02 11:41:22;;;;;;;3.05;2.65;;;3.10;99.90;;;;;;5044781;28;20429;-73
2022/12/02 11:44:10;;;;;;;2.72;1.83;;;3.20;99.90;;;;;;5038494;28;20442;-73
2022/12/02 11:46:39;;;;;;;2.15;2.05;;;3.30;99.90;;;;;;5036229;28;20439;-74
2022/12/02 11:49:32;;;;;;;2.60;1.48;;;3.40;99.90;;;;;;5041282;28;21208;-73
2022/12/02 11:52:07;;;;;;;3.47;1.83;;;3.40;99.90;;;;;;5037217;28;20524;-74
2022/12/02 11:54:40;;;;;;;1.70;1.60;;;3.30;99.90;;;;;;5039548;28;20441;-73
2022/12/02 11:57:17;;;;;;;2.30;2.10;;;3.30;99.90;;;;;;5041055;28;20413;-73
2022/12/02 11:59:44;;;;;;;3.50;1.85;;;3.20;99.90;;;;;;5037151;28;20438;-73
2022/12/02 12:02:28;;;;;;;3.67;1.98;;;3.30;99.90;;;;;;5044852;28;20429;-73
2022/12/02 12:05:05;;;;;;;6.20;3.00;;;3.30;99.90;;;;;;5044551;28;20432;-73
2022/12/02 12:07:49;;;;;;;3.78;2.67;;;3.30;99.90;;;;;;5041001;28;20427;-73
2022/12/02 12:10:28;;;;;;;3.50;2.90;;;3.10;99.90;;;;;;5036309;28;20427;-73
2022/12/02 12:13:21;;;;;;;11.25;3.60;;;3.00;99.90;;;;;;5040726;28;20438;-74
2022/12/02 12:15:50;;;;;;;5.15;2.45;;;3.00;99.90;;;;;;5035987;28;20438;-73
2022/12/02 12:18:38;;;;;;;4.20;1.67;;;3.00;99.90;;;;;;5038191;28;20436;-73
2022/12/02 12:21:06;;;;;;;4.82;3.30;;;3.00;99.90;;;;;;5047003;28;20903;-73
2022/12/02 12:23:34;;;;;;;2.88;2.03;;;2.90;99.90;;;;;;5045255;28;20436;-73
2022/12/02 12:26:02;;;;;;;2.13;1.83;;;2.90;99.90;;;;;;5060483;28;20476;-73
2022/12/02 12:28:33;;;;;;;1.63;1.27;;;2.90;99.90;;;;;;5052836;28;20440;-73
2022/12/02 12:31:02;;;;;;;3.70;1.67;;;3.00;99.90;;;;;;5046846;28;20813;-73
2022/12/02 12:33:29;;;;;;;2.90;1.95;;;3.10;99.90;;;;;;5042544;28;20431;-74
2022/12/02 12:35:57;;;;;;;3.47;1.60;;;3.00;99.90;;;;;;5071455;28;20427;-74
2022/12/02 12:38:28;;;;;;;3.22;1.75;;;3.00;99.90;;;;;;5075753;28;20433;-73
2022/12/02 12:40:57;;;;;;;1.63;1.52;;;3.00;99.90;;;;;;5034346;28;20894;-74
2022/12/02 12:43:24;;;;;;;3.42;2.15;;;3.00;99.90;;;;;;5044766;28;20435;-73
2022/12/02 12:45:51;;;;;;;2.40;2.10;;;3.00;99.90;;;;;;5045252;28;20483;-74
2022/12/02 12:48:18;;;;;;;1.77;1.52;;;3.00;99.90;;;;;;5042084;28;20433;-73
2022/12/02 12:50:44;;;;;;;1.52;1.42;;;3.00;99.90;;;;;;5043162;28;20423;-74
2022/12/02 12:53:11;;;;;;;4.78;2.55;;;3.00;99.90;;;;;;5044542;28;20433;-73
2022/12/02 12:55:38;;;;;;;2.75;2.53;;;3.00;99.90;;;;;;5044928;28;20430;-74
2022/12/02 12:58:04;;;;;;;1.50;1.40;;;2.90;99.90;;;;;;5045457;28;20479;-73
2022/12/02 13:00:31;;;;;;;1.60;1.23;;;2.90;99.90;;;;;;5041634;28;20921;-74
2022/12/02 13:02:58;;;;;;;2.03;1.73;;;2.90;99.90;;;;;;5039029;28;20437;-73
2022/12/02 13:05:25;;;;;;;2.58;1.80;;;2.90;99.90;;;;;;5043327;28;20437;-75
2022/12/02 13:07:52;;;;;;;1.75;1.13;;;2.80;99.90;;;;;;5045933;28;20446;-74
2022/12/02 13:10:20;;;;;;;2.53;1.30;;;2.70;99.90;;;;;;5045368;28;20917;-74
2022/12/02 13:12:47;;;;;;;4.15;1.63;;;2.80;99.90;;;;;;5045929;28;20437;-74
2022/12/02 13:15:15;;;;;;;2.60;1.67;;;2.80;99.90;;;;;;5043718;28;20757;-74
2022/12/02 13:17:41;;;;;;;2.80;2.05;;;2.70;99.90;;;;;;5052353;28;20515;-73
2022/12/02 13:20:15;;;;;;;1.85;1.75;;;2.70;99.90;;;;;;5042121;28;20437;-75
2022/12/02 13:22:42;;;;;;;3.00;1.63;;;2.70;99.90;;;;;;5046610;28;20924;-74